createdAt,value
2018-10-17T00:01:52.922Z,47.40
2018-10-17T00:04:20.830Z,47.50
2018-10-17T00:06:48.576Z,47.50
2018-10-17T00:09:16.368Z,47.50
2018-10-17T00:11:44.027Z,47.50
2018-10-17T00:14:11.796Z,47.50
2018-10-17T00:16:39.481Z,47.40
2018-10-17T00:19:07.102Z,47.40
2018-10-17T00:21:34.828Z,47.40
2018-10-17T00:24:02.723Z,47.40
2018-10-17T00:26:30.592Z,47.30
2018-10-17T00:28:58.263Z,46.90
2018-10-17T00:31:25.983Z,47.30
2018-10-17T00:33:53.715Z,47.30
2018-10-17T00:36:21.397Z,47.20
2018-10-17T00:38:49.062Z,47.20
2018-10-17T00:41:16.832Z,47.20
2018-10-17T00:43:44.390Z,47.20
2018-10-17T00:46:12.399Z,47.20
2018-10-17T00:48:40.376Z,47.20
2018-10-17T00:51:08.267Z,47.20
2018-10-17T00:53:35.988Z,47.20
2018-10-17T00:56:03.618Z,47.20
2018-10-17T00:58:31.294Z,47.20
2018-10-17T01:00:59.324Z,47.10
2018-10-17T01:03:26.904Z,47.20
2018-10-17T01:05:54.609Z,47.20
2018-10-17T01:08:22.203Z,47.20
2018-10-17T01:10:49.830Z,47.10
2018-10-17T01:13:17.425Z,47.20
2018-10-17T01:15:45.030Z,47.10
2018-10-17T01:18:12.912Z,47.10
2018-10-17T01:20:40.506Z,47.20
2018-10-17T01:23:08.177Z,47.20
2018-10-17T01:25:35.781Z,47.10
2018-10-17T01:28:03.386Z,47.20
2018-10-17T01:30:30.987Z,47.10
2018-10-17T01:32:58.628Z,47.20
2018-10-17T01:35:26.413Z,47.10
2018-10-17T01:37:54.170Z,47.10
2018-10-17T01:40:21.789Z,47.10
2018-10-17T01:45:23.476Z,47.10
2018-10-17T01:47:51.069Z,47.00
2018-10-17T01:50:18.682Z,47.40
2018-10-17T01:52:46.400Z,47.60
2018-10-17T01:55:14.076Z,46.90
2018-10-17T01:57:41.611Z,47.50
2018-10-17T02:00:09.330Z,46.90
2018-10-17T02:02:37.027Z,46.80
2018-10-17T02:05:04.718Z,46.80
2018-10-17T02:07:32.969Z,46.80
2018-10-17T02:10:00.602Z,46.80
2018-10-17T02:12:28.216Z,46.80
2018-10-17T02:14:55.893Z,46.80
2018-10-17T02:17:23.676Z,46.80
2018-10-17T02:19:51.365Z,47.00
2018-10-17T02:22:19.105Z,46.80
2018-10-17T02:24:46.787Z,46.70
2018-10-17T02:27:14.484Z,46.70
2018-10-17T02:29:42.187Z,46.70
2018-10-17T02:32:09.799Z,46.80
2018-10-17T02:34:42.957Z,46.70
2018-10-17T02:37:11.006Z,46.70
2018-10-17T02:39:38.628Z,46.70
2018-10-17T02:42:06.188Z,46.70
2018-10-17T02:44:33.806Z,46.70
2018-10-17T02:47:01.513Z,46.70
2018-10-17T02:49:29.173Z,46.80
2018-10-17T02:51:56.779Z,46.70
2018-10-17T02:54:24.636Z,46.70
2018-10-17T02:56:52.249Z,46.70
2018-10-17T02:59:19.863Z,46.80
2018-10-17T03:01:47.496Z,46.70
2018-10-17T03:04:15.222Z,47.30
2018-10-17T03:06:42.873Z,46.70
2018-10-17T03:09:10.717Z,46.70
2018-10-17T03:11:38.603Z,46.70
2018-10-17T03:14:06.312Z,46.70
2018-10-17T03:16:34.317Z,46.70
2018-10-17T03:19:02.044Z,46.70
2018-10-17T03:21:29.660Z,46.70
2018-10-17T03:23:57.473Z,46.70
2018-10-17T03:26:25.315Z,46.70
2018-10-17T03:28:53.085Z,46.70
2018-10-17T03:31:20.936Z,46.70
2018-10-17T03:33:48.688Z,46.70
2018-10-17T03:36:16.583Z,46.70
2018-10-17T03:38:44.439Z,46.70
2018-10-17T03:41:12.256Z,46.70
2018-10-17T03:43:39.979Z,46.70
2018-10-17T03:46:07.861Z,46.70
2018-10-17T03:48:36.154Z,46.70
2018-10-17T03:51:03.958Z,46.70
2018-10-17T03:53:31.862Z,46.70
2018-10-17T03:55:59.708Z,46.70
2018-10-17T03:58:27.679Z,46.70
2018-10-17T04:00:55.602Z,46.60
2018-10-17T04:03:23.349Z,46.70
2018-10-17T04:05:51.264Z,46.70
2018-10-17T04:08:19.096Z,46.70
2018-10-17T04:10:46.849Z,46.70
2018-10-17T04:13:14.760Z,46.70
2018-10-17T04:15:42.451Z,46.70
2018-10-17T04:18:10.130Z,46.60
2018-10-17T04:20:38.090Z,46.70
2018-10-17T04:23:05.930Z,46.80
2018-10-17T04:25:33.514Z,46.80
2018-10-17T04:28:01.531Z,46.90
2018-10-17T04:30:29.299Z,46.90
2018-10-17T04:32:56.960Z,46.90
2018-10-17T04:35:24.852Z,46.90
2018-10-17T04:37:52.680Z,46.90
2018-10-17T04:40:20.434Z,46.90
2018-10-17T04:42:48.086Z,46.90
2018-10-17T04:45:15.882Z,47.50
2018-10-17T04:47:43.695Z,47.00
2018-10-17T04:50:11.809Z,46.90
2018-10-17T04:52:40.190Z,47.00
2018-10-17T04:55:09.467Z,46.90
2018-10-17T04:57:37.238Z,47.00
2018-10-17T05:00:05.952Z,47.10
2018-10-17T05:02:33.948Z,47.30
2018-10-17T05:05:01.861Z,47.30
2018-10-17T05:07:29.851Z,45.60
2018-10-17T05:09:57.937Z,44.70
2018-10-17T05:12:25.821Z,44.50
2018-10-17T05:14:53.484Z,46.50
2018-10-17T05:17:21.129Z,46.50
2018-10-17T05:19:58.908Z,46.40
2018-10-17T05:22:41.330Z,46.30
2018-10-17T05:25:09.447Z,46.40
2018-10-17T05:27:37.047Z,46.50
2018-10-17T05:30:04.996Z,46.40
2018-10-17T05:32:33.165Z,46.50
2018-10-17T05:35:01.493Z,46.60
2018-10-17T05:37:29.125Z,46.50
2018-10-17T05:39:56.721Z,46.60
2018-10-17T05:42:24.444Z,46.50
2018-10-17T05:44:52.358Z,46.70
2018-10-17T05:47:19.967Z,46.70
2018-10-17T05:49:47.617Z,46.90
2018-10-17T05:52:15.377Z,47.00
2018-10-17T05:54:43.067Z,47.10
2018-10-17T05:57:10.741Z,47.10
2018-10-17T05:59:38.402Z,47.10
2018-10-17T06:02:09.617Z,47.40
2018-10-17T06:04:37.254Z,47.40
2018-10-17T06:07:05.319Z,47.30
2018-10-17T06:09:32.933Z,47.40
2018-10-17T06:12:00.618Z,47.40
2018-10-17T06:14:28.575Z,47.40
2018-10-17T06:16:56.364Z,47.50
2018-10-17T06:19:24.018Z,47.60
2018-10-17T06:21:51.822Z,47.70
2018-10-17T06:24:19.485Z,47.80
2018-10-17T06:26:47.256Z,47.90
2018-10-17T06:29:15.264Z,48.00
2018-10-17T06:31:43.576Z,48.10
2018-10-17T06:34:11.321Z,48.10
2018-10-17T06:36:39.596Z,48.20
2018-10-17T06:39:07.910Z,48.30
2018-10-17T06:41:36.159Z,48.30
2018-10-17T06:44:03.803Z,48.40
2018-10-17T06:46:31.461Z,48.40
2018-10-17T06:48:59.621Z,48.50
2018-10-17T06:51:27.273Z,48.60
2018-10-17T06:53:54.931Z,48.60
2018-10-17T06:56:22.773Z,48.60
2018-10-17T06:58:50.425Z,48.70
2018-10-17T07:01:18.217Z,48.80
2018-10-17T07:03:45.856Z,48.80
2018-10-17T07:06:13.561Z,48.80
2018-10-17T07:08:41.294Z,49.00
2018-10-17T07:11:09.099Z,48.80
2018-10-17T07:13:36.858Z,48.80
2018-10-17T07:16:04.888Z,48.90
2018-10-17T07:18:32.665Z,48.90
2018-10-17T07:21:00.453Z,48.90
2018-10-17T07:23:28.281Z,48.90
2018-10-17T07:25:56.104Z,48.90
2018-10-17T07:28:23.953Z,49.00
2018-10-17T07:30:51.743Z,49.10
2018-10-17T07:33:19.414Z,49.00
2018-10-17T07:35:47.252Z,49.10
2018-10-17T07:38:14.933Z,49.10
2018-10-17T07:40:42.827Z,49.10
2018-10-17T07:43:10.614Z,49.10
2018-10-17T07:45:38.595Z,49.20
2018-10-17T07:48:06.481Z,49.20
2018-10-17T07:50:34.052Z,49.20
2018-10-17T07:53:01.829Z,49.10
2018-10-17T07:55:29.432Z,49.10
2018-10-17T07:57:57.047Z,49.10
2018-10-17T08:00:24.862Z,49.00
2018-10-17T08:02:52.847Z,49.00
2018-10-17T08:05:20.741Z,49.10
2018-10-17T08:07:49.007Z,49.20
2018-10-17T08:10:16.755Z,49.10
2018-10-17T08:12:45.865Z,49.30
2018-10-17T08:15:14.181Z,49.10
2018-10-17T08:17:41.976Z,49.30
2018-10-17T08:20:11.009Z,49.20
2018-10-17T08:22:38.994Z,49.30
2018-10-17T08:25:07.130Z,49.40
2018-10-17T08:27:35.092Z,49.40
2018-10-17T08:30:03.037Z,49.50
2018-10-17T08:32:31.737Z,49.50
2018-10-17T08:34:59.924Z,49.50
2018-10-17T08:37:28.220Z,49.50
2018-10-17T08:39:56.454Z,49.50
2018-10-17T08:42:24.393Z,49.50
2018-10-17T08:44:52.495Z,49.50
2018-10-17T08:47:20.214Z,49.50
2018-10-17T08:49:48.187Z,49.50
2018-10-17T08:52:15.909Z,49.50
2018-10-17T08:54:43.749Z,49.60
2018-10-17T08:57:11.411Z,49.50
2018-10-17T08:59:39.194Z,49.60
2018-10-17T09:02:07.531Z,49.60
2018-10-17T09:04:35.532Z,49.70
2018-10-17T09:07:03.353Z,49.70
2018-10-17T09:09:30.986Z,49.70
2018-10-17T09:11:58.803Z,49.80
2018-10-17T09:14:26.815Z,49.80
2018-10-17T09:16:54.439Z,49.90
2018-10-17T09:19:22.227Z,49.80
2018-10-17T09:21:50.687Z,49.80
2018-10-17T09:24:18.132Z,49.80
2018-10-17T09:26:45.771Z,49.90
2018-10-17T09:29:14.179Z,49.80
2018-10-17T09:31:42.355Z,49.80
2018-10-17T09:34:10.418Z,49.80
2018-10-17T09:36:38.421Z,49.90
2018-10-17T09:39:07.653Z,49.80
2018-10-17T09:41:35.730Z,49.80
2018-10-17T09:44:03.752Z,49.80
2018-10-17T09:46:32.209Z,49.80
2018-10-17T09:49:00.214Z,50.00
2018-10-17T09:51:27.963Z,50.00
2018-10-17T09:53:55.629Z,49.90
2018-10-17T09:56:23.670Z,49.90
2018-10-17T09:58:51.545Z,49.90
2018-10-17T10:01:24.717Z,49.90
2018-10-17T10:03:52.524Z,49.90
2018-10-17T10:06:20.136Z,49.90
2018-10-17T10:08:47.766Z,49.80
2018-10-17T10:11:15.411Z,49.80
2018-10-17T10:13:43.068Z,49.80
2018-10-17T10:16:11.013Z,49.80
2018-10-17T10:18:39.036Z,49.80
2018-10-17T10:21:07.017Z,49.80
2018-10-17T10:23:35.329Z,49.90
2018-10-17T10:26:03.403Z,49.80
2018-10-17T10:28:31.533Z,49.90
2018-10-17T10:30:59.382Z,49.90
2018-10-17T10:33:27.303Z,50.00
2018-10-17T10:35:55.177Z,50.10
2018-10-17T10:38:22.847Z,50.10
2018-10-17T10:40:50.577Z,50.20
2018-10-17T10:43:18.426Z,50.20
2018-10-17T10:45:46.453Z,50.20
2018-10-17T10:48:14.343Z,50.20
2018-10-17T10:50:42.407Z,50.80
2018-10-17T10:53:10.112Z,50.20
2018-10-17T10:55:37.749Z,50.30
2018-10-17T10:58:05.637Z,50.40
2018-10-17T11:00:33.948Z,50.30
2018-10-17T11:03:01.671Z,50.40
2018-10-17T11:05:29.628Z,50.30
2018-10-17T11:07:57.357Z,50.20
2018-10-17T11:10:24.946Z,50.30
2018-10-17T11:12:52.939Z,50.20
2018-10-17T11:15:20.630Z,50.30
2018-10-17T11:17:48.317Z,50.10
2018-10-17T11:20:16.087Z,50.10
2018-10-17T11:22:44.482Z,50.10
2018-10-17T11:25:12.106Z,50.20
2018-10-17T11:27:39.767Z,50.20
2018-10-17T11:30:08.151Z,50.20
2018-10-17T11:32:35.787Z,50.20
2018-10-17T11:35:03.541Z,50.20
2018-10-17T11:37:31.839Z,50.20
2018-10-17T11:39:59.760Z,50.20
2018-10-17T11:42:27.401Z,50.10
2018-10-17T11:44:55.636Z,50.20
2018-10-17T11:47:23.581Z,50.20
2018-10-17T11:49:51.574Z,50.20
2018-10-17T11:52:19.276Z,50.30
2018-10-17T11:54:47.034Z,50.40
2018-10-17T11:57:15.504Z,51.00
2018-10-17T11:59:43.201Z,50.40
2018-10-17T12:02:10.881Z,50.40
2018-10-17T12:04:38.650Z,50.40
2018-10-17T12:07:06.540Z,50.50
2018-10-17T12:09:34.325Z,51.00
2018-10-17T12:12:02.073Z,51.00
2018-10-17T12:14:29.915Z,50.40
2018-10-17T12:16:57.649Z,50.40
2018-10-17T12:19:26.632Z,50.40
2018-10-17T12:21:54.957Z,50.40
2018-10-17T12:24:22.762Z,50.40
2018-10-17T12:26:50.711Z,50.40
2018-10-17T12:29:18.400Z,50.40
2018-10-17T12:31:46.146Z,50.40
2018-10-17T12:34:13.859Z,50.40
2018-10-17T12:36:41.821Z,50.40
2018-10-17T12:39:11.094Z,50.40
2018-10-17T12:41:39.067Z,50.40
2018-10-17T12:44:06.995Z,50.40
2018-10-17T12:46:34.623Z,50.40
2018-10-17T12:49:02.516Z,50.40
2018-10-17T12:51:30.557Z,50.40
2018-10-17T12:53:58.319Z,50.40
2018-10-17T12:56:26.085Z,50.40
2018-10-17T12:58:53.818Z,50.40
2018-10-17T13:01:21.581Z,51.10
2018-10-17T13:03:49.649Z,50.50
2018-10-17T13:06:17.621Z,50.50
2018-10-17T13:08:45.488Z,50.50
2018-10-17T13:11:13.239Z,50.50
2018-10-17T13:13:41.135Z,50.50
2018-10-17T13:16:08.876Z,50.50
2018-10-17T13:18:36.809Z,50.50
2018-10-17T13:21:05.646Z,50.50
2018-10-17T13:23:33.300Z,50.50
2018-10-17T13:26:01.378Z,50.50
2018-10-17T13:28:29.192Z,50.50
2018-10-17T13:30:57.133Z,50.50
2018-10-17T13:33:24.921Z,50.50
2018-10-17T13:35:52.695Z,50.50
2018-10-17T13:38:20.610Z,50.50
2018-10-17T13:40:48.875Z,50.50
2018-10-17T13:43:16.770Z,50.50
2018-10-17T13:45:44.391Z,50.60
2018-10-17T13:48:12.066Z,50.50
2018-10-17T13:50:39.769Z,50.50
2018-10-17T13:53:08.131Z,50.60
2018-10-17T13:55:35.921Z,50.60
2018-10-17T13:58:03.633Z,50.60
2018-10-17T14:00:31.489Z,50.80
2018-10-17T14:02:59.274Z,50.60
2018-10-17T14:05:26.914Z,50.60
2018-10-17T14:07:54.627Z,50.60
2018-10-17T14:10:22.296Z,50.60
2018-10-17T14:12:50.284Z,50.60
2018-10-17T14:15:18.004Z,50.70
2018-10-17T14:17:45.624Z,50.70
2018-10-17T14:20:13.405Z,50.70
2018-10-17T14:22:41.484Z,50.70
2018-10-17T14:25:09.259Z,50.70
2018-10-17T14:27:36.879Z,50.80
2018-10-17T14:30:05.476Z,50.70
2018-10-17T14:32:33.193Z,50.70
2018-10-17T14:35:00.990Z,50.70
2018-10-17T14:37:28.776Z,50.70
2018-10-17T14:39:57.321Z,50.70
2018-10-17T14:42:25.700Z,50.70
2018-10-17T14:44:53.716Z,50.70
2018-10-17T14:47:21.629Z,50.70
2018-10-17T14:49:49.934Z,50.80
2018-10-17T14:52:17.619Z,50.80
2018-10-17T14:54:45.266Z,50.80
2018-10-17T14:57:13.032Z,50.80
2018-10-17T14:59:40.737Z,50.90
2018-10-17T15:02:08.394Z,50.90
2018-10-17T15:04:36.075Z,50.90
2018-10-17T15:07:03.740Z,50.90
2018-10-17T15:09:31.669Z,50.90
2018-10-17T15:11:59.439Z,50.90
2018-10-17T15:14:27.111Z,50.80
2018-10-17T15:16:54.832Z,50.90
2018-10-17T15:19:22.452Z,50.90
2018-10-17T15:21:50.630Z,50.90
2018-10-17T15:24:18.408Z,51.10
2018-10-17T15:26:47.029Z,51.20
2018-10-17T15:29:14.666Z,51.10
2018-10-17T15:31:42.515Z,51.10
2018-10-17T15:34:10.396Z,51.20
2018-10-17T15:36:38.107Z,51.10
2018-10-17T15:39:07.406Z,51.10
2018-10-17T15:41:35.040Z,50.90
2018-10-17T15:44:03.599Z,50.90
2018-10-17T15:46:31.329Z,50.90
2018-10-17T15:48:59.053Z,51.50
2018-10-17T15:51:27.299Z,50.70
2018-10-17T15:53:55.010Z,50.60
2018-10-17T15:56:22.631Z,50.50
2018-10-17T15:58:50.484Z,50.30
2018-10-17T16:01:18.137Z,50.30
2018-10-17T16:03:45.818Z,50.30
2018-10-17T16:06:13.611Z,50.80
2018-10-17T16:08:41.227Z,50.00
2018-10-17T16:11:08.968Z,50.30
2018-10-17T16:13:36.748Z,49.90
2018-10-17T16:16:04.530Z,50.00
2018-10-17T16:18:32.212Z,50.00
2018-10-17T16:21:00.069Z,49.80
2018-10-17T16:23:28.011Z,49.90
2018-10-17T16:25:55.970Z,50.00
2018-10-17T16:28:24.101Z,49.90
2018-10-17T16:30:51.966Z,49.80
2018-10-17T16:33:19.928Z,49.80
2018-10-17T16:35:47.647Z,49.70
2018-10-17T16:38:15.329Z,49.70
2018-10-17T16:40:42.986Z,49.70
2018-10-17T16:43:10.694Z,49.70
2018-10-17T16:45:38.369Z,49.60
2018-10-17T16:48:06.401Z,49.50
2018-10-17T16:50:34.303Z,49.60
2018-10-17T16:53:01.785Z,49.50
2018-10-17T16:55:29.473Z,49.40
2018-10-17T16:57:57.320Z,49.70
2018-10-17T17:00:25.265Z,49.40
2018-10-17T17:02:53.045Z,49.40
2018-10-17T17:05:20.791Z,49.30
2018-10-17T17:07:48.502Z,49.30
2018-10-17T17:10:16.325Z,49.20
2018-10-17T17:12:44.221Z,49.20
2018-10-17T17:15:12.332Z,49.20
2018-10-17T17:17:40.038Z,49.30
2018-10-17T17:20:08.526Z,49.10
2018-10-17T17:22:36.387Z,49.10
2018-10-17T17:25:04.043Z,49.10
2018-10-17T17:27:32.221Z,49.30
2018-10-17T17:30:01.212Z,49.30
2018-10-17T17:32:28.903Z,49.30
2018-10-17T17:34:56.993Z,49.40
2018-10-17T17:37:25.084Z,49.40
2018-10-17T17:39:53.109Z,49.40
2018-10-17T17:42:20.917Z,49.40
2018-10-17T17:44:48.659Z,49.30
2018-10-17T17:47:16.603Z,49.30
2018-10-17T17:49:44.575Z,49.30
2018-10-17T17:52:12.799Z,49.30
2018-10-17T17:54:40.688Z,49.20
2018-10-17T17:57:08.751Z,49.20
2018-10-17T17:59:37.177Z,49.20
2018-10-17T18:02:05.328Z,49.10
2018-10-17T18:04:33.094Z,49.10
2018-10-17T18:07:00.741Z,49.10
2018-10-17T18:09:28.748Z,49.10
2018-10-17T18:11:56.918Z,48.90
2018-10-17T18:14:24.631Z,49.00
2018-10-17T18:16:53.216Z,48.40
2018-10-17T18:19:20.852Z,49.00
2018-10-17T18:21:48.530Z,48.90
2018-10-17T18:24:16.345Z,48.90
2018-10-17T18:26:44.007Z,48.90
2018-10-17T18:29:12.096Z,48.80
2018-10-17T18:31:40.077Z,49.00
2018-10-17T18:34:09.617Z,49.10
2018-10-17T18:36:37.617Z,49.00
2018-10-17T18:39:06.411Z,49.00
2018-10-17T18:41:34.063Z,49.00
2018-10-17T18:44:03.041Z,48.90
2018-10-17T18:46:30.943Z,48.80
2018-10-17T18:48:58.717Z,48.80
2018-10-17T18:51:26.432Z,48.80
2018-10-17T18:53:54.188Z,48.80
2018-10-17T18:56:22.001Z,48.80
2018-10-17T18:58:49.849Z,48.80
2018-10-17T19:01:17.608Z,48.70
2018-10-17T19:03:45.267Z,48.70
2018-10-17T19:06:13.051Z,48.80
2018-10-17T19:08:40.739Z,48.80
2018-10-17T19:11:08.541Z,48.60
2018-10-17T19:13:36.193Z,48.60
2018-10-17T19:16:03.927Z,48.70
2018-10-17T19:18:31.656Z,48.70
2018-10-17T19:20:59.459Z,48.60
2018-10-17T19:23:27.403Z,48.60
2018-10-17T19:25:55.053Z,48.50
2018-10-17T19:28:23.130Z,48.60
2018-10-17T19:30:51.484Z,48.50
2018-10-17T19:33:19.401Z,48.60
2018-10-17T19:35:47.560Z,48.30
2018-10-17T19:38:15.328Z,48.50
2018-10-17T19:40:43.128Z,48.60
2018-10-17T19:43:10.839Z,48.50
2018-10-17T19:45:38.714Z,48.40
2018-10-17T19:48:06.339Z,48.50
2018-10-17T19:50:34.043Z,48.40
2018-10-17T19:53:01.908Z,48.40
2018-10-17T19:55:29.682Z,48.40
2018-10-17T19:57:57.495Z,48.40
2018-10-17T20:00:25.236Z,48.40
2018-10-17T20:02:53.155Z,48.40
2018-10-17T20:05:20.839Z,48.40
2018-10-17T20:07:48.649Z,48.40
2018-10-17T20:10:16.290Z,48.30
2018-10-17T20:12:44.735Z,48.30
2018-10-17T20:15:12.546Z,48.30
2018-10-17T20:17:40.291Z,48.30
2018-10-17T20:20:08.179Z,48.30
2018-10-17T20:22:35.953Z,48.30
2018-10-17T20:25:03.811Z,48.20
2018-10-17T20:27:31.592Z,48.20
2018-10-17T20:30:01.899Z,48.20
2018-10-17T20:32:29.747Z,47.90
2018-10-17T20:34:57.924Z,48.20
2018-10-17T20:37:25.710Z,48.20
2018-10-17T20:39:53.756Z,48.20
2018-10-17T20:42:21.774Z,48.00
2018-10-17T20:44:49.627Z,48.00
2018-10-17T20:47:17.318Z,48.10
2018-10-17T20:49:44.982Z,48.00
2018-10-17T20:52:12.717Z,48.10
2018-10-17T20:54:40.438Z,48.10
2018-10-17T20:57:08.212Z,48.00
2018-10-17T20:59:36.280Z,47.90
2018-10-17T21:02:04.321Z,48.00
2018-10-17T21:04:32.453Z,47.90
2018-10-17T21:07:00.155Z,47.90
2018-10-17T21:09:28.014Z,48.00
2018-10-17T21:11:56.000Z,47.90
2018-10-17T21:14:23.633Z,47.80
2018-10-17T21:16:51.650Z,47.80
2018-10-17T21:19:19.436Z,47.90
2018-10-17T21:21:47.114Z,47.80
2018-10-17T21:24:14.737Z,48.00
2018-10-17T21:26:42.491Z,47.80
2018-10-17T21:29:10.741Z,47.70
2018-10-17T21:31:38.575Z,47.60
2018-10-17T21:34:06.516Z,47.70
2018-10-17T21:36:34.501Z,47.70
2018-10-17T21:39:02.259Z,47.70
2018-10-17T21:41:30.080Z,47.50
2018-10-17T21:43:57.740Z,47.60
2018-10-17T21:46:25.511Z,47.50
2018-10-17T21:48:53.201Z,47.50
2018-10-17T21:51:20.950Z,47.50
2018-10-17T21:53:48.635Z,47.60
2018-10-17T21:56:16.330Z,47.50
2018-10-17T21:58:44.203Z,47.40
2018-10-17T22:01:11.823Z,47.50
2018-10-17T22:03:39.682Z,47.40
2018-10-17T22:06:07.407Z,47.50
2018-10-17T22:08:35.124Z,47.40
2018-10-17T22:11:02.795Z,47.40
2018-10-17T22:13:30.635Z,47.40
2018-10-17T22:15:58.261Z,47.40
2018-10-17T22:18:25.922Z,47.50
2018-10-17T22:20:53.548Z,47.50
2018-10-17T22:23:21.169Z,47.40
2018-10-17T22:25:48.791Z,47.40
2018-10-17T22:28:16.589Z,47.50
2018-10-17T22:30:44.212Z,47.40
2018-10-17T22:33:12.144Z,47.40
2018-10-17T22:35:39.772Z,47.30
2018-10-17T22:38:07.540Z,47.70
2018-10-17T22:40:35.172Z,47.30
2018-10-17T22:43:02.881Z,47.30
2018-10-17T22:45:30.538Z,47.30
2018-10-17T22:47:58.725Z,47.20
2018-10-17T22:50:26.410Z,47.20
2018-10-17T22:52:54.028Z,47.30
2018-10-17T22:55:21.807Z,47.30
2018-10-17T22:57:49.408Z,47.20
2018-10-17T23:00:17.098Z,47.10
2018-10-17T23:02:44.717Z,47.10
2018-10-17T23:05:12.363Z,47.80
2018-10-17T23:07:40.004Z,47.10
2018-10-17T23:10:07.632Z,47.00
2018-10-17T23:12:35.456Z,47.10
2018-10-17T23:15:03.697Z,47.00
2018-10-17T23:17:31.330Z,47.00
2018-10-17T23:19:59.021Z,47.00
2018-10-17T23:22:26.804Z,47.00
2018-10-17T23:24:54.422Z,47.10
2018-10-17T23:27:22.141Z,47.00
2018-10-17T23:29:49.877Z,47.00
2018-10-17T23:32:17.644Z,47.60
2018-10-17T23:34:45.251Z,47.00
2018-10-17T23:37:12.870Z,47.00
2018-10-17T23:39:40.491Z,46.90
2018-10-17T23:42:08.224Z,47.00
2018-10-17T23:44:35.847Z,47.10
2018-10-17T23:47:03.532Z,46.90
2018-10-17T23:49:31.149Z,46.90
2018-10-17T23:51:58.871Z,46.90
2018-10-17T23:54:26.592Z,46.90
2018-10-17T23:56:54.253Z,46.80
2018-10-17T23:59:21.863Z,46.80
